createdAt,value
2022-11-21T00:00:23.403Z,7.30
2022-11-21T00:03:08.178Z,7.33
2022-11-21T00:05:42.505Z,7.32
2022-11-21T00:08:16.433Z,7.32
2022-11-21T00:10:49.146Z,7.30
2022-11-21T00:13:23.543Z,7.32
2022-11-21T00:15:56.059Z,7.29
2022-11-21T00:18:28.759Z,7.32
2022-11-21T00:21:04.431Z,7.38
2022-11-21T00:23:36.817Z,7.37
2022-11-21T00:26:10.744Z,7.32
2022-11-21T00:28:43.902Z,7.28
2022-11-21T00:31:24.091Z,7.26
2022-11-21T00:33:56.793Z,7.19
2022-11-21T00:36:29.832Z,7.18
2022-11-21T00:39:03.190Z,7.24
2022-11-21T00:41:36.184Z,7.25
2022-11-21T00:44:10.410Z,7.27
2022-11-21T00:46:46.169Z,7.23
2022-11-21T00:49:19.134Z,7.21
2022-11-21T00:51:51.379Z,7.24
2022-11-21T00:54:25.772Z,7.25
2022-11-21T00:56:59.318Z,7.31
2022-11-21T00:59:33.688Z,7.31
2022-11-21T01:02:08.499Z,7.31
2022-11-21T01:04:41.211Z,7.33
2022-11-21T01:07:15.917Z,7.36
2022-11-21T01:09:48.544Z,7.35
2022-11-21T01:12:20.754Z,7.38
2022-11-21T01:14:54.907Z,7.40
2022-11-21T01:17:26.795Z,7.42
2022-11-21T01:20:01.464Z,7.46
2022-11-21T01:22:33.483Z,7.50
2022-11-21T01:25:06.676Z,7.49
2022-11-21T01:27:41.300Z,7.50
2022-11-21T01:30:15.601Z,7.52
2022-11-21T01:32:51.107Z,7.50
2022-11-21T01:35:26.526Z,7.48
2022-11-21T01:37:58.426Z,7.47
2022-11-21T01:40:32.720Z,7.47
2022-11-21T01:43:11.824Z,7.44
2022-11-21T01:46:00.018Z,7.38
2022-11-21T01:48:35.809Z,7.25
2022-11-21T01:51:11.545Z,7.05
2022-11-21T01:53:45.836Z,6.95
2022-11-21T01:56:18.188Z,6.89
2022-11-21T01:58:51.766Z,6.82
2022-11-21T02:01:25.632Z,6.72
2022-11-21T02:03:58.647Z,6.61
2022-11-21T02:06:30.467Z,6.55
2022-11-21T02:09:04.975Z,6.47
2022-11-21T02:11:41.026Z,6.35
2022-11-21T02:14:14.991Z,6.22
2022-11-21T02:16:50.976Z,6.11
2022-11-21T02:19:28.772Z,6.03
2022-11-21T02:22:06.134Z,5.96
2022-11-21T02:24:43.344Z,5.89
2022-11-21T02:27:16.208Z,5.84
2022-11-21T02:29:48.313Z,5.83
2022-11-21T02:32:26.305Z,5.77
2022-11-21T02:34:58.450Z,5.72
2022-11-21T02:37:30.971Z,5.68
2022-11-21T02:40:05.178Z,5.62
2022-11-21T02:42:40.360Z,5.60
2022-11-21T02:45:17.528Z,5.56
2022-11-21T02:47:52.101Z,5.51
2022-11-21T02:50:28.513Z,5.48
2022-11-21T02:53:00.946Z,5.42
2022-11-21T02:55:35.225Z,5.38
2022-11-21T02:58:08.536Z,5.33
2022-11-21T03:00:43.584Z,5.28
2022-11-21T03:03:18.010Z,5.25
2022-11-21T03:05:52.638Z,5.19
2022-11-21T03:08:24.574Z,5.12
2022-11-21T03:10:59.558Z,5.05
2022-11-21T03:13:32.138Z,4.98
2022-11-21T03:16:05.845Z,4.91
2022-11-21T03:18:41.081Z,4.84
2022-11-21T03:21:13.109Z,4.82
2022-11-21T03:23:45.726Z,4.79
2022-11-21T03:26:21.201Z,4.73
2022-11-21T03:28:55.687Z,4.66
2022-11-21T03:31:27.952Z,4.66
2022-11-21T03:34:00.815Z,4.60
2022-11-21T03:36:36.740Z,4.56
2022-11-21T03:39:09.440Z,4.51
2022-11-21T03:41:42.138Z,4.43
2022-11-21T03:44:15.362Z,4.41
2022-11-21T03:46:48.493Z,4.36
2022-11-21T03:49:21.635Z,4.27
2022-11-21T03:51:56.967Z,4.22
2022-11-21T03:54:29.971Z,4.19
2022-11-21T03:57:06.807Z,4.18
2022-11-21T03:59:39.014Z,4.16
2022-11-21T04:02:12.115Z,4.13
2022-11-21T04:04:48.702Z,4.12
2022-11-21T04:07:22.296Z,4.15
2022-11-21T04:09:54.299Z,4.13
2022-11-21T04:12:26.130Z,4.11
2022-11-21T04:14:58.839Z,4.06
2022-11-21T04:17:32.479Z,3.98
2022-11-21T04:20:05.105Z,3.88
2022-11-21T04:22:39.205Z,3.83
2022-11-21T04:25:13.775Z,3.81
2022-11-21T04:27:46.279Z,3.81
2022-11-21T04:30:21.743Z,3.85
2022-11-21T04:32:56.742Z,3.87
2022-11-21T04:35:29.471Z,3.90
2022-11-21T04:38:05.873Z,3.93
2022-11-21T04:40:40.136Z,3.95
2022-11-21T04:43:11.997Z,3.93
2022-11-21T04:45:46.943Z,3.91
2022-11-21T04:48:21.546Z,3.91
2022-11-21T04:50:55.873Z,3.93
2022-11-21T04:53:28.653Z,3.96
2022-11-21T04:56:02.995Z,3.96
2022-11-21T04:58:37.056Z,3.95
2022-11-21T05:01:16.628Z,3.93
2022-11-21T05:03:49.404Z,3.95
2022-11-21T05:06:25.562Z,3.96
2022-11-21T05:08:57.597Z,4.01
2022-11-21T05:11:49.479Z,4.02
2022-11-21T05:14:21.571Z,4.01
2022-11-21T05:16:56.913Z,3.96
2022-11-21T05:19:32.052Z,3.98
2022-11-21T05:22:05.232Z,3.93
2022-11-21T05:24:37.365Z,3.90
2022-11-21T05:27:09.926Z,3.86
2022-11-21T05:29:42.555Z,3.87
2022-11-21T05:32:15.157Z,3.97
2022-11-21T05:34:50.539Z,4.00
2022-11-21T05:37:24.957Z,4.07
2022-11-21T05:39:57.461Z,4.04
2022-11-21T05:42:43.335Z,4.01
2022-11-21T05:45:17.548Z,4.03
2022-11-21T05:47:50.056Z,4.01
2022-11-21T05:50:23.866Z,3.97
2022-11-21T05:52:55.962Z,3.93
2022-11-21T05:55:28.803Z,3.88
2022-11-21T05:58:02.596Z,3.88
2022-11-21T06:00:34.525Z,3.83
2022-11-21T06:03:25.524Z,3.82
2022-11-21T06:06:06.963Z,3.76
2022-11-21T06:08:40.271Z,3.75
2022-11-21T06:11:16.761Z,3.73
2022-11-21T06:13:50.839Z,3.64
2022-11-21T06:16:23.167Z,3.63
2022-11-21T06:18:58.831Z,3.65
2022-11-21T06:21:34.462Z,3.66
2022-11-21T06:24:08.457Z,3.69
2022-11-21T06:26:45.176Z,3.69
2022-11-21T06:29:17.535Z,3.68
2022-11-21T06:31:51.240Z,3.72
2022-11-21T06:34:23.070Z,3.72
2022-11-21T06:36:58.421Z,3.74
2022-11-21T06:39:30.800Z,3.80
2022-11-21T06:42:05.933Z,3.89
2022-11-21T06:44:38.606Z,3.94
2022-11-21T06:47:11.480Z,3.93
2022-11-21T06:49:44.821Z,3.96
2022-11-21T06:52:19.211Z,3.95
2022-11-21T06:54:53.705Z,3.97
2022-11-21T06:57:27.037Z,3.96
2022-11-21T07:00:00.726Z,4.00
2022-11-21T07:02:34.813Z,4.07
2022-11-21T07:05:07.299Z,4.15
2022-11-21T07:07:41.830Z,4.21
2022-11-21T07:10:16.687Z,4.24
2022-11-21T07:13:07.077Z,4.35
2022-11-21T07:15:39.499Z,4.43
2022-11-21T07:18:13.503Z,4.54
2022-11-21T07:20:45.340Z,4.59
2022-11-21T07:23:19.224Z,4.65
2022-11-21T07:25:51.915Z,4.72
2022-11-21T07:28:25.670Z,4.73
2022-11-21T07:31:01.809Z,4.78
2022-11-21T07:33:38.745Z,4.80
2022-11-21T07:36:14.131Z,4.89
2022-11-21T07:38:46.907Z,4.99
2022-11-21T07:41:19.245Z,5.09
2022-11-21T07:43:51.837Z,5.12
2022-11-21T07:46:24.915Z,5.17
2022-11-21T07:49:02.926Z,5.25
2022-11-21T07:51:36.235Z,5.32
2022-11-21T07:54:09.997Z,5.43
2022-11-21T07:56:42.384Z,5.54
2022-11-21T07:59:15.084Z,5.66
2022-11-21T08:01:47.991Z,5.71
2022-11-21T08:04:21.869Z,5.76
2022-11-21T08:06:53.906Z,5.83
2022-11-21T08:09:27.373Z,5.83
2022-11-21T08:12:03.922Z,5.89
2022-11-21T08:14:37.636Z,5.98
2022-11-21T08:17:10.164Z,6.04
2022-11-21T08:19:41.972Z,6.10
2022-11-21T08:22:15.388Z,6.12
2022-11-21T08:24:49.744Z,6.21
2022-11-21T08:27:21.827Z,6.32
2022-11-21T08:29:55.454Z,6.39
2022-11-21T08:32:28.779Z,6.45
2022-11-21T08:35:01.072Z,6.58
2022-11-21T08:37:33.993Z,6.63
2022-11-21T08:40:08.957Z,6.67
2022-11-21T08:42:41.629Z,6.73
2022-11-21T08:45:14.132Z,6.75
2022-11-21T08:47:46.780Z,6.82
2022-11-21T08:50:20.039Z,6.91
2022-11-21T08:52:55.972Z,6.99
2022-11-21T08:55:29.000Z,7.05
2022-11-21T08:58:03.863Z,7.10
2022-11-21T09:00:36.528Z,7.16
2022-11-21T09:03:09.895Z,7.29
2022-11-21T09:05:42.964Z,7.38
2022-11-21T09:08:15.689Z,7.49
2022-11-21T09:10:49.981Z,7.60
2022-11-21T09:13:23.832Z,7.69
2022-11-21T09:16:19.083Z,7.73
2022-11-21T09:18:54.457Z,7.69
2022-11-21T09:21:26.265Z,7.66
2022-11-21T09:23:58.691Z,7.69
2022-11-21T09:26:31.194Z,7.77
2022-11-21T09:29:04.914Z,7.83
2022-11-21T09:31:39.129Z,7.86
2022-11-21T09:34:12.702Z,7.92
2022-11-21T09:36:47.014Z,7.96
2022-11-21T09:39:21.203Z,8.03
2022-11-21T09:42:00.807Z,8.14
2022-11-21T09:45:02.707Z,8.26
2022-11-21T09:47:36.362Z,8.39
2022-11-21T09:50:17.786Z,8.44
2022-11-21T09:52:55.948Z,8.53
2022-11-21T09:55:33.831Z,8.61
2022-11-21T09:58:07.962Z,8.67
2022-11-21T10:00:39.845Z,8.68
2022-11-21T10:03:20.912Z,8.70
2022-11-21T10:05:57.753Z,8.77
2022-11-21T10:08:42.830Z,8.87
2022-11-21T10:11:22.960Z,8.98
2022-11-21T10:14:07.040Z,9.14
2022-11-21T10:16:45.823Z,9.30
2022-11-21T10:19:25.349Z,9.44
2022-11-21T10:22:17.435Z,9.68
2022-11-21T10:24:57.106Z,9.88
2022-11-21T10:27:35.930Z,10.01
2022-11-21T10:30:14.687Z,10.08
2022-11-21T10:32:47.638Z,10.18
2022-11-21T10:35:22.437Z,10.25
2022-11-21T10:37:55.679Z,10.28
2022-11-21T10:40:38.752Z,10.25
2022-11-21T10:43:41.437Z,10.31
2022-11-21T10:46:15.721Z,10.41
2022-11-21T10:49:00.338Z,10.51
2022-11-21T10:51:47.320Z,10.62
2022-11-21T10:54:35.115Z,10.72
2022-11-21T10:57:14.573Z,10.82
2022-11-21T11:00:00.878Z,10.93
2022-11-21T11:02:33.147Z,11.01
2022-11-21T11:05:22.684Z,11.11
2022-11-21T11:08:07.068Z,11.17
2022-11-21T11:10:40.867Z,11.21
2022-11-21T11:13:47.437Z,11.24
2022-11-21T11:16:22.619Z,11.28
2022-11-21T11:18:59.526Z,11.31
2022-11-21T11:21:44.319Z,11.31
2022-11-21T11:24:29.063Z,11.32
2022-11-21T11:27:03.535Z,11.36
2022-11-21T11:29:36.641Z,11.38
2022-11-21T11:32:21.132Z,11.40
2022-11-21T11:35:03.029Z,11.42
2022-11-21T11:37:41.359Z,11.40
2022-11-21T11:40:23.009Z,11.47
2022-11-21T11:43:41.236Z,11.53
2022-11-21T11:46:49.866Z,11.62
2022-11-21T11:50:00.852Z,11.63
2022-11-21T11:52:37.645Z,11.62
2022-11-21T11:55:17.753Z,11.65
2022-11-21T11:57:53.230Z,11.71
2022-11-21T12:00:32.738Z,11.76
2022-11-21T12:03:09.838Z,11.82
2022-11-21T12:05:59.455Z,11.87
2022-11-21T12:08:42.311Z,11.89
2022-11-21T12:11:39.780Z,11.88
2022-11-21T12:14:41.163Z,11.82
2022-11-21T12:17:16.571Z,11.86
2022-11-21T12:19:50.072Z,11.87
2022-11-21T12:22:24.336Z,11.88
2022-11-21T12:24:56.827Z,11.87
2022-11-21T12:27:32.797Z,11.86
2022-11-21T12:30:49.816Z,11.89
2022-11-21T12:33:24.622Z,11.92
2022-11-21T12:36:24.523Z,11.97
2022-11-21T12:39:18.643Z,12.01
2022-11-21T12:42:13.627Z,12.00
2022-11-21T12:45:01.192Z,12.05
2022-11-21T12:48:09.394Z,12.07
2022-11-21T12:51:09.342Z,12.22
2022-11-21T12:54:03.479Z,12.45
2022-11-21T12:56:45.539Z,12.74
2022-11-21T12:59:20.299Z,12.87
2022-11-21T13:01:56.797Z,12.87
2022-11-21T13:04:31.518Z,12.82
2022-11-21T13:07:05.188Z,12.75
2022-11-21T13:09:41.802Z,12.65
2022-11-21T13:12:19.571Z,12.60
2022-11-21T13:14:57.135Z,12.54
2022-11-21T13:17:40.744Z,12.51
2022-11-21T13:20:29.390Z,12.47
2022-11-21T13:23:06.675Z,12.41
2022-11-21T13:25:41.151Z,12.31
2022-11-21T13:28:35.341Z,12.30
2022-11-21T13:31:30.427Z,12.32
2022-11-21T13:34:03.694Z,12.30
2022-11-21T13:36:44.216Z,12.29
2022-11-21T13:39:37.415Z,12.29
2022-11-21T13:42:32.284Z,12.27
2022-11-21T13:45:36.038Z,12.19
2022-11-21T13:48:40.329Z,12.14
2022-11-21T13:51:41.441Z,12.09
2022-11-21T13:54:27.647Z,12.02
2022-11-21T13:57:08.662Z,12.00
2022-11-21T13:59:50.876Z,12.00
2022-11-21T14:02:50.902Z,12.02
2022-11-21T14:05:38.188Z,11.96
2022-11-21T14:08:26.678Z,11.95
2022-11-21T14:10:59.961Z,11.94
2022-11-21T14:13:34.663Z,11.97
2022-11-21T14:16:27.860Z,11.99
2022-11-21T14:19:03.663Z,11.97
2022-11-21T14:21:39.995Z,11.92
2022-11-21T14:24:19.021Z,11.91
2022-11-21T14:26:54.785Z,11.92
2022-11-21T14:29:40.300Z,11.87
2022-11-21T14:32:18.296Z,11.80
2022-11-21T14:34:50.340Z,11.76
2022-11-21T14:37:23.081Z,11.72
2022-11-21T14:40:01.120Z,11.67
2022-11-21T14:42:38.650Z,11.62
2022-11-21T14:45:20.091Z,11.61
2022-11-21T14:47:54.462Z,11.59
2022-11-21T14:50:29.385Z,11.59
2022-11-21T14:53:03.003Z,11.59
2022-11-21T14:55:38.921Z,11.58
2022-11-21T14:58:15.245Z,11.56
2022-11-21T15:01:05.856Z,11.54
2022-11-21T15:03:38.723Z,11.52
2022-11-21T15:06:14.342Z,11.52
2022-11-21T15:11:41.923Z,11.43
2022-11-21T15:14:22.945Z,11.41
2022-11-21T15:16:57.741Z,11.42
2022-11-21T15:19:32.516Z,11.40
2022-11-21T15:22:05.908Z,11.42
2022-11-21T15:24:43.388Z,11.44
2022-11-21T15:27:33.352Z,11.41
2022-11-21T15:30:26.474Z,11.35
2022-11-21T15:33:10.192Z,11.33
2022-11-21T15:35:51.135Z,11.27
2022-11-21T15:38:32.844Z,11.21
2022-11-21T15:41:27.850Z,11.22
2022-11-21T15:44:22.337Z,11.15
2022-11-21T15:46:58.124Z,11.07
2022-11-21T15:52:26.207Z,11.02
2022-11-21T15:54:59.531Z,10.95
2022-11-21T15:57:13.777Z,11.06
2022-11-21T15:57:32.569Z,10.91
2022-11-21T16:00:08.529Z,10.90
2022-11-21T16:02:41.895Z,10.90
2022-11-21T16:05:16.256Z,10.88
2022-11-21T16:07:49.917Z,10.87
2022-11-21T16:10:27.732Z,10.89
2022-11-21T16:13:01.365Z,10.88
2022-11-21T16:15:33.361Z,10.87
2022-11-21T16:18:06.618Z,10.87
2022-11-21T16:20:38.766Z,10.88
2022-11-21T16:23:12.171Z,10.87
2022-11-21T16:25:55.916Z,10.80
2022-11-21T16:28:29.754Z,10.73
2022-11-21T16:31:03.933Z,10.70
2022-11-21T16:33:41.445Z,10.65
2022-11-21T16:36:17.167Z,10.67
2022-11-21T16:38:55.520Z,10.66
2022-11-21T16:41:27.856Z,10.63
2022-11-21T16:44:01.224Z,10.64
2022-11-21T16:46:35.305Z,10.69
2022-11-21T16:49:07.981Z,10.69
2022-11-21T16:51:41.655Z,10.66
2022-11-21T16:54:17.591Z,10.70
2022-11-21T16:56:49.692Z,10.74
2022-11-21T16:59:23.174Z,10.76
2022-11-21T17:01:57.619Z,10.79
2022-11-21T17:04:30.890Z,10.79
2022-11-21T17:07:05.017Z,10.79
2022-11-21T17:09:37.684Z,10.76
2022-11-21T17:12:10.013Z,10.79
2022-11-21T17:14:43.569Z,10.81
2022-11-21T17:17:19.947Z,10.81
2022-11-21T17:19:54.618Z,10.77
2022-11-21T17:22:26.776Z,10.73
2022-11-21T17:24:59.277Z,10.75
2022-11-21T17:27:33.510Z,10.78
2022-11-21T17:30:10.293Z,10.80
2022-11-21T17:32:43.154Z,10.80
2022-11-21T17:35:16.947Z,10.77
2022-11-21T17:37:50.831Z,10.72
2022-11-21T17:40:23.835Z,10.70
2022-11-21T17:42:56.491Z,10.72
2022-11-21T17:45:30.249Z,10.72
2022-11-21T17:48:02.493Z,10.74
2022-11-21T17:50:37.819Z,10.74
2022-11-21T17:53:10.402Z,10.73
2022-11-21T17:55:43.558Z,10.72
2022-11-21T17:58:17.028Z,10.70
2022-11-21T18:00:57.648Z,10.72
2022-11-21T18:03:30.681Z,10.76
2022-11-21T18:06:08.054Z,10.76
2022-11-21T18:08:43.449Z,10.77
2022-11-21T18:11:19.456Z,10.74
2022-11-21T18:13:52.680Z,10.72
2022-11-21T18:16:26.805Z,10.74
2022-11-21T18:19:01.662Z,10.77
2022-11-21T18:21:35.909Z,10.80
2022-11-21T18:24:10.627Z,10.79
2022-11-21T18:26:45.216Z,10.77
2022-11-21T18:29:35.839Z,10.73
2022-11-21T18:32:12.713Z,10.74
2022-11-21T18:34:46.950Z,10.73
2022-11-21T18:37:21.572Z,10.73
2022-11-21T18:39:54.064Z,10.73
2022-11-21T18:42:28.760Z,10.73
2022-11-21T18:45:01.998Z,10.77
2022-11-21T18:47:38.072Z,10.79
2022-11-21T18:50:12.103Z,10.77
2022-11-21T18:52:47.002Z,10.77
2022-11-21T18:55:22.605Z,10.77
2022-11-21T18:57:55.456Z,10.76
2022-11-21T19:00:28.076Z,10.73
2022-11-21T19:03:00.807Z,10.73
2022-11-21T19:05:33.688Z,10.72
2022-11-21T19:08:07.766Z,10.72
2022-11-21T19:10:43.685Z,10.75
2022-11-21T19:13:17.212Z,10.73
2022-11-21T19:15:49.847Z,10.75
2022-11-21T19:18:22.468Z,10.78
2022-11-21T19:20:54.697Z,10.79
2022-11-21T19:23:27.143Z,10.81
2022-11-21T19:26:03.862Z,10.82
2022-11-21T19:28:42.131Z,10.81
2022-11-21T19:31:17.524Z,10.81
2022-11-21T19:33:50.809Z,10.77
2022-11-21T19:36:25.295Z,10.77
2022-11-21T19:38:59.232Z,10.77
2022-11-21T19:41:37.201Z,10.75
2022-11-21T19:44:10.653Z,10.71
2022-11-21T19:46:48.096Z,10.70
2022-11-21T19:49:21.530Z,10.71
2022-11-21T19:51:53.459Z,10.69
2022-11-21T19:54:26.776Z,10.70
2022-11-21T19:56:59.786Z,10.70
2022-11-21T19:59:32.978Z,10.66
2022-11-21T20:02:06.449Z,10.65
2022-11-21T20:04:41.090Z,10.61
2022-11-21T20:07:14.967Z,10.63
2022-11-21T20:09:48.602Z,10.61
2022-11-21T20:12:20.845Z,10.61
2022-11-21T20:14:54.072Z,10.56
2022-11-21T20:17:27.361Z,10.54
2022-11-21T20:20:01.221Z,10.47
2022-11-21T20:22:33.865Z,10.48
2022-11-21T20:25:07.590Z,10.45
2022-11-21T20:27:39.387Z,10.41
2022-11-21T20:30:13.128Z,10.43
2022-11-21T20:32:50.259Z,10.42
2022-11-21T20:35:25.119Z,10.39
2022-11-21T20:37:59.930Z,10.41
2022-11-21T20:40:35.712Z,10.39
2022-11-21T20:43:07.844Z,10.41
2022-11-21T20:48:34.829Z,10.37
2022-11-21T20:54:03.853Z,10.23
2022-11-21T20:56:39.411Z,10.28
2022-11-21T20:59:16.237Z,10.25
2022-11-21T21:01:49.875Z,10.24
2022-11-21T21:04:22.794Z,10.25
2022-11-21T21:06:54.750Z,10.27
2022-11-21T21:09:28.714Z,10.25
2022-11-21T21:12:07.762Z,10.27
2022-11-21T21:14:43.410Z,10.24
2022-11-21T21:17:15.909Z,10.29
2022-11-21T21:19:47.845Z,10.29
2022-11-21T21:22:20.898Z,10.26
2022-11-21T21:24:53.099Z,10.27
2022-11-21T21:27:27.371Z,10.26
2022-11-21T21:30:00.090Z,10.30
2022-11-21T21:32:36.167Z,10.33
2022-11-21T21:35:10.713Z,10.31
2022-11-21T21:37:42.671Z,10.25
2022-11-21T21:40:16.383Z,10.28
2022-11-21T21:42:49.536Z,10.29
2022-11-21T21:45:22.279Z,10.28
2022-11-21T21:47:55.211Z,10.28
2022-11-21T21:50:27.770Z,10.25
2022-11-21T21:53:05.176Z,10.20
2022-11-21T21:55:39.092Z,10.16
2022-11-21T21:58:12.316Z,10.15
2022-11-21T22:00:46.445Z,10.11
2022-11-21T22:03:19.405Z,10.05
2022-11-21T22:05:53.272Z,9.98
2022-11-21T22:08:33.632Z,9.90
2022-11-21T22:11:10.820Z,9.79
2022-11-21T22:13:47.104Z,9.67
2022-11-21T22:16:19.428Z,9.55
2022-11-21T22:18:51.939Z,9.44
2022-11-21T22:21:28.091Z,9.33
2022-11-21T22:26:58.711Z,8.98
2022-11-21T22:29:32.049Z,8.88
2022-11-21T22:32:04.146Z,8.78
2022-11-21T22:34:37.559Z,8.64
2022-11-21T22:37:11.225Z,8.55
2022-11-21T22:39:49.582Z,8.49
2022-11-21T22:42:25.552Z,8.39
2022-11-21T22:44:57.554Z,8.31
2022-11-21T22:47:31.634Z,8.25
2022-11-21T22:50:04.935Z,8.16
2022-11-21T22:52:38.674Z,8.14
2022-11-21T22:55:12.313Z,8.10
2022-11-21T22:57:44.853Z,8.03
2022-11-21T23:00:20.179Z,7.95
2022-11-21T23:02:52.389Z,7.86
2022-11-21T23:05:26.761Z,7.72
2022-11-21T23:08:00.932Z,7.63
2022-11-21T23:10:34.279Z,7.56
2022-11-21T23:13:10.062Z,7.52
2022-11-21T23:15:44.678Z,7.54
2022-11-21T23:18:18.991Z,7.57
2022-11-21T23:20:54.557Z,7.60
2022-11-21T23:23:29.403Z,7.65
2022-11-21T23:26:04.858Z,7.65
2022-11-21T23:28:40.381Z,7.68
2022-11-21T23:31:15.719Z,7.72
2022-11-21T23:33:50.888Z,7.74
2022-11-21T23:36:26.471Z,7.76
2022-11-21T23:39:02.953Z,7.74
2022-11-21T23:41:37.826Z,7.74
2022-11-21T23:44:11.446Z,7.69
2022-11-21T23:46:45.937Z,7.64
2022-11-21T23:49:20.912Z,7.65
2022-11-21T23:51:56.091Z,7.63
2022-11-21T23:54:29.686Z,7.65
2022-11-21T23:57:02.174Z,7.66
2022-11-21T23:59:36.576Z,7.66
